Terminal Aerodrome Forecast
Issued by NWS

Home | Current Version | Previous Version | Text Only | Print | Product List | Glossary On
Versions: 1 2 3 4 5 6 7 8 9 10 11 12 13 14 15 16
000
FTUS45 KBOU 281130
TAFBJC
TAF
KBJC 281130Z 2812/2912 35006KT P6SM BKN120 BKN200
     FM281800 03008KT P6SM FEW090 BKN200
     FM282200 10008KT P6SM FEW090 BKN140 PROB30 2822/2903 VRB15G30KT
      -TSRA BKN070CB
     FM290300 26010KT P6SM SCT090 BKN140=

USA.gov is the U.S. government's official web portal to all federal, state and local government web resources and services.